Tiempo atmosférico en la estación meteorológica de Calanda, Teruel (459 m.)



Fecha
DESCASC
Temp. máxima en grados centígrados (hora)
DESCASC
Temp. mínima en grados centígrados (hora)
DESCASC
Temp. media en grados centígrados
DESCASC
Racha de viento máxima en m/sg (hora)
DESCASC
Velocidad máxima media en intervalos de 10 minutos(hora)
DESCASC
Precipitaciones diarias en mm
DESCASC
Precipitaciones de 00:00 a 06:00 en mm
DESCASC
Precipitaciones de 06:00 a 12:00 en mm
DESCASC
Precipitaciones de 12:00 a 18:00 en mm
DESCASC
Precipitaciones de 18:00 a 24:00 en mm
DESCASC
16-01-2020 15 (15:40) 3.6 (02:40) 9.3 7.22 (22:20) 4.44 (22:10) 0 0 0 0 0
15-01-2020 15 (16:10) 1.6 (01:40) 8.3 6.67 (01:50) 5 (03:30) 0 0 0 0 0
14-01-2020 11 (12:20) -2.1 (01:00) 4.5 5.83 (02:20) 4.72 (08:10) 0 0 0 0 0
13-01-2020 7.5 (12:30) -1.1 (23:59) 3.2 6.39 (03:20) 5 (03:20) 0 0 0 0 0
12-01-2020 12.7 (15:00) 1 (06:40) 6.8 6.67 (02:00) 5.56 (02:00) 0 0 0 0 0
11-01-2020 11.9 (15:30) 2 (00:00) 6.9 6.39 (23:59) 4.44 (23:59) 0 0 0 0 0
10-01-2020 9.6 (13:50) 1.1 (00:00) 5.4 13.61 (11:40) 7.78 (12:00) 0 0 0 0 0
09-01-2020 7.6 (16:50) -3 (-00:0) 2.3 6.39 (20:30) 3.33 (21:20) 0 0 0 0 0
08-01-2020 -- (--) -- (--) -- -- (--) -- (--) -- -- -- 0 0
07-01-2020 -- (--) -- (--) -- -- (--) -- (--) -- 0 0 0 --
06-01-2020 2.7 (16:10) -2.5 (-00:0) 0.1 3.61 (15:20) 1.94 (15:20) 0 0 0 0 0
05-01-2020 13.9 (14:50) 0.5 (00:00) 7.2 5.56 (09:00) 4.44 (05:00) 0 0 0 0 0
04-01-2020 11.1 (15:30) 4.1 (00:00) 7.6 7.22 (12:30) 4.17 (12:50) 0 0 0 0 0
03-01-2020 8.4 (14:20) -2.5 (-00:0) 2.9 5.83 (21:00) 3.61 (21:40) 0 0 0 0 0
02-01-2020 0.1 (16:20) -3.5 (-00:0) -1.7 2.78 (15:00) 1.94 (03:30) 0 0 0 0 0
01-01-2020 1.8 (15:30) -2.8 (-00:0) -0.5 3.06 (06:10) 2.22 (04:10) 0 0 0 0 0
31-12-2019 1.4 (13:50) -0.9 (-00:0) 0.3 3.89 (14:00) 2.22 (07:30) 0 0 0 0 0
30-12-2019 1.2 (15:30) -1.1 (-00:0) 0.1 3.61 (14:50) 1.94 (16:10) 0 0 0 0 0
29-12-2019 3.1 (14:20) -3 (-00:0) 0 3.89 (15:20) 1.67 (15:30) 0 0 0 0 0
28-12-2019 13.9 (12:10) -0.3 (00:00) 6.8 7.78 (03:50) 6.11 (03:50) 0 0 0 0 0
27-12-2019 14.4 (14:10) 2.1 (00:00) 8.2 5.83 (09:20) 4.72 (09:20) 0 0 0 0 0
26-12-2019 15.6 (14:10) 5.6 (00:00) 10.6 12.22 (12:40) 8.06 (14:00) 0 0 0 0 0
25-12-2019 18.9 (12:50) 7.3 (00:00) 13.1 7.22 (00:10) 5.28 (00:10) 0 0 0 0 0
24-12-2019 19 (14:10) 7.3 (03:00) 13.2 7.5 (23:50) 5.56 (23:59) 0 0 0 0 0
23-12-2019 16.3 (16:00) 8 (00:00) 12.1 10 (15:10) 6.39 (15:10) 0 0 0 0 0
22-12-2019 18.5 (15:00) 9.7 (23:50) 14.1 22.22 (02:20) 12.22 (02:20) 0.2 0.2 0 0 0
21-12-2019 22.8 (13:30) 9.6 (08:00) 16.2 23.06 (16:40) 11.11 (16:50) 1 0 0.2 0.8 0

Gráficas

Temp. máximas Temp. mínimas Temp. medias Precipitaciones Rachas de viento máximas Velocidades máximas media en intervalos de 10 minutos

Datos horarios

Fecha y hora oficial Temperatura (ºC) Velocidad del viento (km/h) Dirección del viento Racha (km/h) Dirección de racha Precipitación (mm) Presión (hPa) Tendencia (hPa) Humedad (%)
2020-01-19 23:00:00 2.1 11 Oeste 22 Noroeste 0 970.1 2.1 67
2020-01-19 22:00:00 2.2 5 Oeste 22 Noroeste 0 969.8 2.3 66
2020-01-19 21:00:00 2.8 15 Oeste 35 Oeste 0 969 1.8 64
2020-01-19 20:00:00 3.4 18 Oeste 32 Oeste 0 968 1.4 64
2020-01-19 19:00:00 4.3 15 Oeste 27 Oeste 0 967.5 1.2 67
2020-01-19 18:00:00 5.5 10 Oeste 21 Noroeste 0 967.2 1.2 70
2020-01-19 17:00:00 6.3 10 Noroeste 28 Noroeste 0 966.6 0.5 71
2020-01-19 16:00:00 6.4 16 Noroeste 32 Noroeste 0 966.3 -0.1 75
2020-01-19 15:00:00 6.2 23 Noroeste 36 Noroeste 0 966 -0.5 80
2020-01-19 14:00:00 5.8 21 Noroeste 35 Noroeste 0.2 966.1 0 92
2020-01-19 13:00:00 5.7 16 Noroeste 31 Noroeste 1.2 966.4 1.4 95
2020-01-19 12:00:00 4.9 8 Noroeste 15 Noroeste 2.6 966.5 2.3 95
2020-01-19 11:00:00 4.6 10 Noroeste 18 Norte 3.2 966.1 2.6 95
2020-01-19 10:00:00 4.7 13 Noroeste 23 Noroeste 3 965 1.4 95
2020-01-19 09:00:00 4.8 12 Noroeste 23 Noroeste 2.6 964.2 0.6 94
2020-01-19 08:00:00 4.8 14 Noroeste 22 Noroeste 0.4 963.5 -0.4 91
2020-01-19 07:00:00 5.2 10 Oeste 25 Oeste 0 963.6 -0.5 86
2020-01-19 06:00:00 5.7 17 Noroeste 26 Noroeste 0 963.6 -1 79
2020-01-19 05:00:00 6 12 Oeste 34 Noroeste 0 963.9 0 77
2020-01-19 04:00:00 6.1 13 Oeste 27 Oeste 0 964.1 -0.2 77
2020-01-19 03:00:00 6.2 13 Oeste 26 Oeste 0 964.6 0.5 77
2020-01-19 02:00:00 6.6 15 Oeste 37 Noroeste 0 963.9 0.4 79
2020-01-19 01:00:00 7.7 12 Oeste 41 Oeste 0.2 964.3 -0.5 80
2020-01-19 00:00:00 7.7 17 Oeste 33 Oeste 0 964.1 -1.7 71
2020-01-18 23:00:00 6.3 2 Oeste 12 Sudoeste 0 963.5 -1.9 75
2020-01-18 22:00:00 7.3 5 Sudoeste 12 Noroeste 0 964.8 -0.7 71
2020-01-18 21:00:00 9 8 Noroeste 14 Noroeste 0 965.8 -0.1 63
2020-01-18 20:00:00 9.2 3 Oeste 8 Noroeste 0 965.4 -1.3 60
2020-01-18 19:00:00 9.6 5 Oeste 6 Oeste 0 965.5 -2.3 59
2020-01-18 18:00:00 10.7 2 Noroeste 8 Noroeste 0 965.9 -2.4 54
2020-01-18 17:00:00 11.1 5 Noroeste 14 Noroeste 0 966.7 -3.1 51
2020-01-18 16:00:00 11.7 11 Norte 16 Noroeste 0 967.8 -3.4 50
2020-01-18 15:00:00 13.1 8 Nordeste 14 Este 0 968.3 -4.4 43
2020-01-18 14:00:00 12.7 3 Nordeste 11 Sudeste 0 969.8 -3.8 40
2020-01-18 13:00:00 10.9 7 Sudeste 11 Este 0 971.2 -2.7 44
2020-01-18 12:00:00 9.7 5 Sudeste 14 Este 0 972.7 -1.8 49
2020-01-18 11:00:00 7.9 6 Sur 16 Sur 0 973.6 -1.3 53
2020-01-18 10:00:00 6.2 7 Sur 21 Sudoeste 0 973.9 -1.1 60
2020-01-18 09:00:00 4.7 6 Sudoeste 12 Sur 0 974.5 -0.1 68
2020-01-18 08:00:00 4.8 10 Sudoeste 19 Sudoeste 0 974.9 0.2 65
2020-01-18 07:00:00 4 8 Sudoeste 14 Oeste 0 975 -0.1 69
2020-01-18 06:00:00 3.6 5 Sudoeste 14 Sudoeste 0 974.6 -1.2 71
2020-01-18 05:00:00 3.8 11 Sudoeste 22 Sudoeste 0 974.7 -1.6 73
2020-01-18 04:00:00 3.4 12 Sudoeste 19 Sudoeste 0 975.1 -1.5 78
2020-01-18 03:00:00 4.3 12 Sudoeste 18 Sudoeste 0 975.8 -0.8 73
2020-01-18 02:00:00 5.1 14 Sudoeste 22 Sudoeste 0 976.3 -0.3 71
2020-01-18 01:00:00 4.5 17 Sudoeste 25 Sudoeste 0 976.6 0.1 77
2020-01-18 00:00:00 4.8 9 Oeste 16 Sudoeste 0 976.6 0.5 76
2020-01-17 23:00:00 5 9 Sudoeste 16 Oeste 0 976.6 0.5 75
2020-01-17 22:00:00 6.1 12 Oeste 19 Oeste 0 976.5 1.2 72
2020-01-17 21:00:00 6.5 7 Sudoeste 17 Noroeste 0 976.1 1.7 71
2020-01-17 20:00:00 7.7 10 Oeste 18 Noroeste 0 976.1 3 63
2020-01-17 19:00:00 9.2 11 Noroeste 26 Noroeste 0 975.3 2.4 58
2020-01-17 18:00:00 11 14 Noroeste 33 Oeste 0 974.4 1.8 53
2020-01-17 17:00:00 14.4 15 Oeste 38 Noroeste 0 973.1 0.7 34
2020-01-17 16:00:00 14.2 19 Oeste 45 Oeste 0 972.9 0.1 33
2020-01-17 15:00:00 13.6 29 Oeste 44 Oeste 0 972.6 -0.4 41
2020-01-17 14:00:00 15.2 23 Oeste 49 Oeste 0 972.4 -0.5 38
2020-01-17 13:00:00 15.4 21 Oeste 42 Noroeste 0 972.8 0.3 36
2020-01-17 12:00:00 14.8 18 Oeste 32 Oeste 0 973 1.2 37
2020-01-17 11:00:00 13.5 11 Oeste 21 Oeste 0 972.9 1.4 42
2020-01-17 10:00:00 11.1 3 Este 14 Sudoeste 0 972.5 1.7 50
2020-01-17 09:00:00 8.7 8 Oeste 22 Sudoeste 0 971.8 1.2 55
2020-01-17 08:00:00 4.7 4 Oeste 22 Norte 0 971.5 1.1 68
2020-01-17 07:00:00 6.6 20 Sudoeste 25 Sudoeste 0 970.8 0.2 61
2020-01-17 06:00:00 8 17 Sudoeste 23 Sudoeste 0 970.6 -0.1 55
2020-01-17 05:00:00 8.1 11 Sudoeste 18 Sudoeste 0 970.4 -0.3 56
2020-01-17 04:00:00 8.7 12 Sudoeste 23 Sudoeste 0 970.6 -0.3 55
2020-01-17 03:00:00 8.4 18 Sudoeste 24 Sudoeste 0 970.7 -0.4 60
2020-01-17 02:00:00 8.1 15 Sudoeste 22 Sudoeste 0 970.7 -0.2 59
2020-01-17 01:00:00 8.5 15 Sudoeste 20 Sudoeste 0 970.9 0.2 59
2020-01-17 00:00:00 8.8 12 Sudoeste 26 Sur 0 971.1 0.3 63
2020-01-16 23:00:00 9.7 13 Sur 26 Sur 0 970.9 0.4 62
2020-01-16 22:00:00 10.2 11 Sur 22 Sudoeste 0 970.7 0.4 62
2020-01-16 21:00:00 10 9 Sur 16 Sudoeste 0 970.8 0.7 65
2020-01-16 20:00:00 8.7 5 Sudoeste 12 Sudoeste 0 970.5 0.4 71
2020-01-16 19:00:00 8.2 9 Oeste 10 Oeste 0 970.3 0 71
2020-01-16 18:00:00 11 3 Noroeste 9 Norte 0 970.1 -0.3 59
2020-01-16 17:00:00 13.6 6 Norte 11 Norte 0 970.1 -0.9 51
2020-01-16 16:00:00 14.4 5 Nordeste 10 Norte 0 970.3 -1.3 47
2020-01-16 15:00:00 14.7 6 Norte 11 Nordeste 0 970.4 -2.1 45
2020-01-16 14:00:00 13.7 9 Norte 15 Nordeste 0 971 -2.1 47
2020-01-16 13:00:00 14.7 4 Nordeste 9 Este 0 971.6 -1.2 42
2020-01-16 12:00:00 13.5 4 Sudeste 11 Sur 0 972.5 -0.3 45
2020-01-16 11:00:00 11 9 Sur 17 Sudoeste 0 973.1 0.6 56
2020-01-16 10:00:00 8.9 7 Sudeste 19 Sudoeste 0 972.8 0.6 66
2020-01-16 09:00:00 5.7 6 Norte 14 Sudoeste 0 972.8 0.7 75
2020-01-16 08:00:00 6.6 10 Sudoeste 16 Sudoeste 0 972.5 0.5 73
2020-01-16 07:00:00 5.9 10 Sudoeste 15 Sudoeste 0 972.2 0.1 76
2020-01-16 06:00:00 5.8 10 Sudoeste 14 Sudoeste 0 972.1 0 77
2020-01-16 05:00:00 5.9 8 Sudoeste 13 Sudoeste 0 972 -0.2 76
2020-01-16 04:00:00 6.2 8 Sudoeste 15 Sudoeste 0 972.1 -0.2 75
2020-01-16 03:00:00 5.7 10 Sudoeste 14 Sudoeste 0 972.1 -0.1 81
2020-01-16 02:00:00 4.1 2 Sudoeste 9 Oeste 0 972.2 0.3 83
2020-01-16 01:00:00 5 4 Norte 13 Norte 0 972.3 0.8 77
2020-01-16 00:00:00 7.5 3 Nordeste 15 Sudoeste 0 972.2 0.8 67
2020-01-15 23:00:00 6.8 5 Nordeste 22 Sudoeste 0 971.9 0.8 70
2020-01-15 22:00:00 7.7 10 Sur 16 Sudoeste 0 971.5 1.1 71
2020-01-15 21:00:00 5.4 3 Norte 9 Nordeste 0 971.4 2 69
2020-01-15 20:00:00 6.7 2 Sudoeste 9 Oeste 0 971.1 2.3 64
2020-01-15 19:00:00 8 9 Oeste 16 Oeste 0 970.4 1.7 59
2020-01-15 18:00:00 10.9 2 Sudoeste 5 Sudoeste 0 969.4 0.8 48
2020-01-15 17:00:00 14.5 3 Este 8 Nordeste 0 968.8 -0.5 39
2020-01-15 16:00:00 14.6 3 Nordeste 9 Este 0 968.7 -0.9 36
2020-01-15 15:00:00 14.1 5 Este 15 Nordeste 0 968.6 -1.3 39
2020-01-15 14:00:00 12.4 7 Nordeste 13 Nordeste 0 969.3 -0.3 43
2020-01-15 13:00:00 12.5 4 Nordeste 9 Este 0 969.6 0.9 42
2020-01-15 12:00:00 11.9 4 Este 13 Sudoeste 0 969.9 1.7 41
2020-01-15 11:00:00 9 10 Sudoeste 16 Sudoeste 0 969.6 1.5 48
2020-01-15 10:00:00 5.8 11 Sudoeste 20 Sudoeste 0 968.7 1.1 57
2020-01-15 09:00:00 4.5 14 Sudoeste 18 Sudoeste 0 968.2 0.8 59
2020-01-15 08:00:00 3.4 12 Sudoeste 17 Sudoeste 0 968.1 0.8 59
2020-01-15 07:00:00 2.9 7 Sur 19 Sudoeste 0 967.6 0.2 58
2020-01-15 06:00:00 2.3 13 Sudoeste 20 Sudoeste 0 967.4 -0.1 59
2020-01-15 05:00:00 2.2 15 Sudoeste 24 Sudoeste 0 967.3 -0.2 58
2020-01-15 04:00:00 1.8 10 Sudoeste 24 Sudoeste 0 967.4 -0.3 60
2020-01-15 03:00:00 2.1 14 Sudoeste 22 Sudoeste 0 967.5 -0.1 61
2020-01-15 02:00:00 2.4 16 Sudoeste 24 Sudoeste 0 967.5 -0.1 56
2020-01-15 01:00:00 2.3 12 Sudoeste 19 Sudoeste 0 967.7 0.4 58
2020-01-15 00:00:00 2.3 15 Sudoeste 19 Sudoeste 0 967.6 0.6 61
2020-01-14 23:00:00 0.1 6 Sudoeste 12 Sudoeste 0 967.6 0.7 71
2020-01-14 22:00:00 2.3 9 Sudoeste 15 Sudoeste 0 967.3 0.8 62
2020-01-14 21:00:00 1 3 Sur 10 Sudoeste 0 967 0.8 72
2020-01-14 20:00:00 0.9 3 Sudoeste 6 Oeste 0 966.9 0.9 72
2020-01-14 19:00:00 2.6 4 Oeste 10 Oeste 0 966.5 0.5 65
2020-01-14 18:00:00 5.2 5 Oeste 8 Oeste 0 966.2 0.2 56
2020-01-14 17:00:00 7.8 6 Noroeste 10 Norte 0 966 -0.1 47
2020-01-14 16:00:00 7.6 6 Norte 12 Norte 0 966 -0.6 49
2020-01-14 15:00:00 7.5 8 Norte 15 Norte 0 966 -1.3 45
2020-01-14 14:00:00 7.8 10 Norte 14 Norte 0 966.1 -1.5 46
2020-01-14 13:00:00 9 8 Norte 14 Norte 0 966.6 -0.6 42
2020-01-14 12:00:00 10.2 5 Sudeste 13 Sudoeste 0 967.3 0.5 25
2020-01-14 11:00:00 7.3 10 Sudoeste 15 Sudoeste 0 967.6 1 30
2020-01-14 10:00:00 5.5 10 Sudoeste 15 Sudoeste 0 967.2 0.5 34
2020-01-14 09:00:00 2.6 9 Sudoeste 20 Sudoeste 0 966.8 1 45
2020-01-14 08:00:00 1.2 15 Sudoeste 19 Sudoeste 0 966.6 0.6 49
2020-01-14 07:00:00 -0.2 5 Oeste 15 Sudoeste 0 966.7 0.4 57
2020-01-14 06:00:00 2.4 7 Sudoeste 20 Sudoeste 0 965.8 -0.5 48
2020-01-14 05:00:00 1 9 Sudoeste 14 Sudoeste 0 966 -0.9 56
2020-01-14 04:00:00 1.7 5 Sudoeste 18 Sudoeste 0 966.3 -0.9 55
2020-01-14 03:00:00 2 12 Sudoeste 21 Sudoeste 0 966.3 -1.2 52
2020-01-14 02:00:00 1.1 10 Sudoeste 14 Sudoeste 0 966.9 0.3 63
2020-01-14 01:00:00 -2.1 4 Sur 9 Sur 0 967.2 0.7 90
2020-01-14 00:00:00 -1.1 3 Sudoeste 13 Norte 0 967.5 0.6 87
2020-01-13 23:00:00 3 3 Sudoeste 21 Sudoeste 0 966.6 -0.5 56
2020-01-13 22:00:00 3.8 8 Sudoeste 19 Sudoeste 0 966.5 -0.9 56
2020-01-13 21:00:00 3.2 9 Sudoeste 12 Sudoeste 0 966.9 -0.5 65
2020-01-13 20:00:00 0.8 0 Calma 5 Noroeste 0 967.1 0 76
2020-01-13 19:00:00 2.3 4 Sur 6 Sudoeste 0 967.4 -0.5 70
2020-01-13 18:00:00 3.6 3 Noroeste 7 Sur 0 967.4 -0.5 64
2020-01-13 17:00:00 4.5 5 Sur 8 Sudeste 0 967.1 -1.2 59
2020-01-13 16:00:00 4.1 3 Este 18 Norte 0 967.9 -1.2 58
2020-01-13 15:00:00 4.5 7 Norte 16 Norte 0 967.9 -1.9 56
2020-01-13 14:00:00 4.4 9 Norte 14 Norte 0 968.3 -2.1 57
2020-01-13 13:00:00 5.5 11 Norte 16 Norte 0 969.1 -0.9 51
2020-01-13 12:00:00 6.5 3 Norte 9 Norte 0 969.8 -0.2 41
2020-01-13 11:00:00 4.1 7 Norte 11 Norte 0 970.4 0 49
2020-01-13 10:00:00 5.8 6 Sur 18 Sudoeste 0 970 -0.7 29
2020-01-13 09:00:00 2.1 12 Sudoeste 22 Sudoeste 0 970 -0.9 39
2020-01-13 08:00:00 1.4 12 Sudoeste 22 Sudoeste 0 970.4 -1 42
2020-01-13 07:00:00 0.9 13 Sudoeste 20 Sudoeste 0 970.7 -1.3 45
2020-01-13 06:00:00 1.6 14 Sudoeste 20 Sudoeste 0 970.9 -1.4 43
2020-01-13 05:00:00 1.7 13 Sudoeste 21 Sudoeste 0 971.4 -1.1 43
2020-01-13 04:00:00 2.2 16 Sudoeste 23 Sudoeste 0 972 -1.1 42
2020-01-13 03:00:00 1.9 13 Sudoeste 21 Sudoeste 0 972.3 -1.3 45
2020-01-13 02:00:00 2.5 17 Sudoeste 22 Sudoeste 0 972.5 -1.6 43
2020-01-13 01:00:00 3.3 15 Sudoeste 21 Sudoeste 0 973.1 -1.1 41
2020-01-13 00:00:00 3.6 17 Sudoeste 22 Sudoeste 0 973.6 -0.6 41
2020-01-12 23:00:00 3.3 13 Sudoeste 18 Sudoeste 0 974.1 -0.2 46
2020-01-12 22:00:00 2.5 2 Sur 15 Sudoeste 0 974.2 0.2 49
2020-01-12 21:00:00 2.8 4 Sudoeste 12 Sudoeste 0 974.2 0.6 50
2020-01-12 20:00:00 1.6 6 Sudoeste 10 Sudoeste 0 974.3 0.8 63
2020-01-12 19:00:00 2.9 4 Oeste 10 Oeste 0 974 0.6 59
2020-01-12 18:00:00 7.2 4 Oeste 9 Norte 0 973.6 0.4 45
2020-01-12 17:00:00 10.6 5 Nordeste 13 Norte 0 973.5 -0.3 32
2020-01-12 16:00:00 11 9 Norte 15 Nordeste 0 973.4 -1.6 30
2020-01-12 15:00:00 12.5 4 Nordeste 11 Este 0 973.2 -2.4 26
2020-01-12 14:00:00 11 5 Norte 9 Norte 0 973.8 -1.7 28
2020-01-12 13:00:00 9.5 8 Norte 16 Norte 0 975 -0.1 33
2020-01-12 12:00:00 10.9 2 Sudeste 8 Sudoeste 0 975.6 0.9 25
2020-01-12 11:00:00 8.6 4 Sur 16 Sudoeste 0 975.5 0.7 30
2020-01-12 10:00:00 4.8 12 Sudoeste 21 Sudoeste 0 975.1 0.6 38
2020-01-12 09:00:00 2.1 18 Sudoeste 22 Sudoeste 0 974.7 0.6 49
2020-01-12 08:00:00 1.2 16 Sudoeste 21 Sudoeste 0 974.8 0.9 50
2020-01-12 07:00:00 1.3 14 Sudoeste 24 Sudoeste 0 974.5 0.3 50
2020-01-12 06:00:00 1.4 16 Sudoeste 24 Sudoeste 0 974.1 -0.4 51
2020-01-12 05:00:00 1.8 18 Sudoeste 23 Sudoeste 0 973.9 -0.6 55
2020-01-12 04:00:00 1.5 16 Sudoeste 22 Sudoeste 0 974.2 -0.5 61
2020-01-12 03:00:00 2.3 17 Sudoeste 23 Sudoeste 0 974.5 -0.4 57
2020-01-12 02:00:00 2.6 20 Sudoeste 24 Sudoeste 0 974.5 -0.4 56
2020-01-12 01:00:00 3.3 15 Sudoeste 23 Sudoeste 0 974.7 -0.1 56
2020-01-12 00:00:00 3.1 16 Sudoeste 23 Sudoeste 0 974.9 0 58
2020-01-11 23:00:00 3.3 13 Sudoeste 18 Sur 0 974.9 0.2 56
2020-01-11 22:00:00 3 7 Sudoeste 15 Sudoeste 0 974.8 0.4 65
2020-01-11 21:00:00 2.7 7 Sudoeste 12 Sudoeste 0 974.9 0.9 70
2020-01-11 20:00:00 2.3 4 Oeste 6 Sudoeste 0 974.7 0.7 74
2020-01-11 19:00:00 3.4 4 Oeste 5 Oeste 0 974.4 0.2 67
2020-01-11 18:00:00 8.3 0 Calma 8 Nordeste 0 974 -0.3 50
2020-01-11 17:00:00 10.6 5 Norte 14 Norte 0 974 -0.8 42
2020-01-11 16:00:00 11.4 11 Norte 17 Norte 0 974.2 -1.7 39
2020-01-11 15:00:00 11 9 Norte 19 Noroeste 0 974.3 -2.7 39
2020-01-11 14:00:00 11.4 7 Noroeste 17 Noroeste 0 974.8 -2.5 39
2020-01-11 13:00:00 10.6 9 Noroeste 23 Oeste 0 975.9 -1 42
2020-01-11 12:00:00 9.2 10 Oeste 21 Oeste 0 977 0.6 46
2020-01-11 11:00:00 8.2 13 Oeste 19 Oeste 0 977.3 1.4 51
2020-01-11 10:00:00 6.3 10 Sudoeste 16 Sudoeste 0 976.9 0.9 62
2020-01-11 09:00:00 3.1 14 Sudoeste 18 Sudoeste 0 976.4 0.9 76
2020-01-11 08:00:00 2.5 12 Sudoeste 15 Sudoeste 0 975.9 0.3 79
2020-01-11 07:00:00 2.9 9 Sudoeste 16 Sudoeste 0 976 0.4 79
2020-01-11 06:00:00 3.9 12 Sudoeste 19 Sudoeste 0 975.5 0 76
2020-01-11 05:00:00 3.9 12 Sudoeste 19 Sudoeste 0 975.6 0.5 77
2020-01-11 04:00:00 4 11 Sudoeste 16 Sudoeste 0 975.6 0.5 78
2020-01-11 03:00:00 4.4 11 Sudoeste 19 Sudoeste 0 975.5 0.4 79
2020-01-11 02:00:00 4.7 13 Sudoeste 20 Sudoeste 0 975.1 0.1 80
2020-01-11 01:00:00 4.7 11 Sudoeste 22 Sudoeste 0 975.1 0.4 80
2020-01-11 00:00:00 5.2 12 Sudoeste 22 Sudoeste 0 975.1 0.7 78
2020-01-10 23:00:00 5.3 12 Sudoeste 22 Sudoeste 0 975 0.9 78
2020-01-10 22:00:00 5.6 12 Sudoeste 19 Sudoeste 0 974.7 1.1 79
2020-01-10 21:00:00 5.9 9 Oeste 23 Oeste 0 974.4 1.6 77
2020-01-10 20:00:00 6.8 11 Oeste 20 Oeste 0 974.1 1.7 75
2020-01-10 19:00:00 7.9 13 Oeste 23 Oeste 0 973.6 1.3 71
2020-01-10 18:00:00 8.5 14 Noroeste 26 Noroeste 0 972.8 0.8 70
2020-01-10 17:00:00 9.2 17 Noroeste 28 Noroeste 0 972.4 0.5 66
2020-01-10 16:00:00 9.4 18 Noroeste 33 Noroeste 0 972.3 0 65
2020-01-10 15:00:00 9.5 22 Noroeste 36 Norte 0 972 -0.8 64
2020-01-10 14:00:00 9.4 23 Noroeste 39 Noroeste 0 971.9 -0.8 61
2020-01-10 13:00:00 9.1 22 Noroeste 39 Noroeste 0 972.3 0.2 62
2020-01-10 12:00:00 8.4 28 Noroeste 49 Noroeste 0 972.8 1.5 65
2020-01-10 11:00:00 8.2 23 Noroeste 46 Noroeste 0 972.7 1.8 66
2020-01-10 10:00:00 7.9 14 Oeste 39 Oeste 0 972.1 1.6 65
2020-01-10 09:00:00 6.8 23 Oeste 35 Noroeste 0 971.3 1.2 72
2020-01-10 08:00:00 7.2 17 Oeste 34 Oeste 0 970.9 1 71
2020-01-10 07:00:00 7.8 19 Oeste 36 Oeste 0 970.5 0.2 70
2020-01-10 06:00:00 7.3 19 Oeste 42 Noroeste 0 970.1 0 76
2020-01-10 05:00:00 7 20 Noroeste 35 Noroeste 0 969.9 0.5 80
2020-01-10 04:00:00 1.7 4 Sudeste 11 Sudeste 0 970.3 1.5 99
2020-01-10 03:00:00 1.1 3 Oeste 14 Norte 0 970.1 1 99
2020-01-10 02:00:00 2.2 5 Norte 11 Nordeste 0 969.4 0.4 98
2020-01-10 01:00:00 2.3 4 Oeste 7 Norte 0 968.8 -1.2 98
2020-01-10 00:00:00 2.2 3 Este 18 Norte 0 969.1 -0.2 98
2020-01-09 23:00:00 1.9 5 Noroeste 13 Sudeste 0 969 0.1 98
2020-01-09 22:00:00 1.7 4 Este 17 Norte 0 970 0.5 98
2020-01-09 21:00:00 1.9 6 Noroeste 23 Norte 0 969.3 -0.1 97
2020-01-09 20:00:00 2.3 3 Sudoeste 8 Sur 0 968.9 0.4 97
2020-01-09 19:00:00 2.7 6 Sudeste 11 Norte 0 969.5 0.4 96
2020-01-09 18:00:00 3.5 9 Norte 13 Norte 0 969.4 -0.6 91
2020-01-09 17:00:00 6.9 4 Norte 8 Norte 0 968.5 -2.4 76
2020-01-09 16:00:00 6.3 2 Nordeste 10 Norte 0 969.1 -2.1 79
2020-01-09 15:00:00 5 4 Nordeste 12 Norte 0 970 -2.3 85
2020-01-09 14:00:00 4 6 Norte 15 Norte 0 970.9 -2.2 89
2020-01-09 13:00:00 3.8 3 Nordeste 7 Noroeste 0 971.2 -1.3 97
2020-01-09 12:00:00 0.8 3 Noroeste 7 Noroeste 0 972.3 0.3 98
2020-01-09 11:00:00 -0.5 3 Norte 10 Norte 0 973.1 0.7 99
2020-01-09 10:00:00 -0.5 6 Norte 10 Norte 0 972.5 -0.4 99
2020-01-09 09:00:00 -2.4 0 Calma 5 Norte 0 972 -0.9 100
2020-01-09 08:00:00 -2.5 3 Sudoeste 5 Norte 0 972.4 -0.6 100
2020-01-09 07:00:00 -2.5 2 Nordeste 10 Noroeste 0 972.9 -1.1 100
2020-01-09 06:00:00 -2.5 7 Noroeste 10 Noroeste 0 972.9 -1 100
2020-01-09 05:00:00 -2.2 3 Sudoeste 5 Sudoeste 0 973 -1 100
2020-01-09 04:00:00 -1.7 3 Noroeste 8 Noroeste 0 974 -0.3 100
2020-01-09 03:00:00 -0.9 2 Sudeste 7 Noroeste 0 973.9 -1 99
2020-01-09 02:00:00 -0.5 3 Norte 5 Noroeste 0 974 -1.1 99
2020-01-09 01:00:00 0.4 3 Noroeste 6 Noroeste 0 974.3 -1 99
2020-01-09 00:00:00 0.5 4 Noroeste 6 Noroeste 0 974.9 -0.1 99
2020-01-08 23:00:00 1.2 3 Este 6 Este 0 975.1 -0.3 98
2020-01-08 22:00:00 1.5 2 Sudeste 6 Norte 0 975.3 -0.1 98
2020-01-08 21:00:00 2 3 Sudeste 6 Sudoeste 0 975 -0.2 98
2020-01-08 20:00:00 2.4 2 Noroeste 5 Este 0 975.4 0.3 97
2020-01-08 19:00:00 2.5 3 Noroeste 5 Este 0 975.4 0.8 97
2020-01-08 18:00:00 2.8 3 Norte 6 Norte 0 975.2 0.4 96
2020-01-08 17:00:00 3.2 4 Norte 11 Nordeste 0 975.1 -0.2 94
2020-01-08 16:00:00 5.1 6 Nordeste 11 Nordeste 0 974.6 -1.4 85
2020-01-08 15:00:00 6 4 Norte -- -- -- 974.8 -1.6 78
2020-01-08 14:00:00 3.6 5 Norte 11 Norte 0 975.3 -1.3 87
2020-01-08 13:00:00 1.8 4 Norte 9 Norte 0 976 0.3 91
2020-01-08 12:00:00 0.9 4 Norte 8 Norte 0 976.4 1.5 92
2020-01-08 11:00:00 0.1 5 Norte 11 Nordeste 0 976.6 -- 91
2020-01-08 10:00:00 1.2 5 Norte 8 Oeste 0 975.7 -- 94
2020-01-08 09:00:00 -0.9 4 Oeste -- -- -- 974.9 -- 96
2020-01-08 08:00:00 -- -- -- -- -- -- -- -- --
2020-01-08 07:00:00 -- -- -- -- -- -- -- -- --
2020-01-08 06:00:00 -- -- -- -- -- -- -- -- --
2020-01-08 05:00:00 -- -- -- -- -- -- -- -- --
2020-01-08 04:00:00 -- -- -- -- -- -- -- -- --
2020-01-08 03:00:00 -- -- -- -- -- -- -- -- --
2020-01-08 02:00:00 -- -- -- -- -- -- -- -- --
2020-01-08 01:00:00 -- -- -- -- -- -- -- -- --
2020-01-08 00:00:00 -- -- -- -- -- -- -- -- --
2020-01-07 23:00:00 -- -- -- -- -- -- -- -- --
2020-01-07 22:00:00 -- -- -- -- -- -- -- -- --
2020-01-07 21:00:00 -- -- -- -- -- -- -- -- --
2020-01-07 20:00:00 -- -- -- -- -- -- -- -- --
2020-01-07 19:00:00 -- -- -- -- -- -- -- -- --
2020-01-07 18:00:00 4.9 2 Noroeste 7 Nordeste 0 974.1 -0.1 84
2020-01-07 17:00:00 7 6 Norte 11 Norte 0 974.2 -1.1 70
2020-01-07 16:00:00 8.8 6 Norte 11 Norte 0 974 -1.8 62
2020-01-07 15:00:00 10.4 6 Este 12 Este 0 974.2 -2.2 56
2020-01-07 14:00:00 7.4 2 Norte 15 Norte 0 975.3 -1.7 76
2020-01-07 13:00:00 7.4 8 Norte 12 Nordeste 0 975.8 -1.3 73
2020-01-07 12:00:00 8.7 4 Este 7 Este 0 976.4 0.1 62
2020-01-07 11:00:00 2.5 3 Nordeste 8 Norte 0 977 0.7 83
2020-01-07 10:00:00 2.9 5 Norte 23 Sudoeste 0 977.1 1.2 71
2020-01-07 09:00:00 -1.4 7 Sudoeste 16 Sudoeste 0 976.3 0.4 99
2020-01-07 08:00:00 -3.9 5 Norte 8 Norte 0 976.3 0.5 97
2020-01-07 07:00:00 -3.8 3 Noroeste 5 Noroeste 0 975.9 0 97
2020-01-07 06:00:00 -3.2 3 Nordeste 7 Nordeste 0 975.9 -0.4 97
2020-01-07 05:00:00 -2.2 3 Oeste 10 Sur 0 975.8 -0.1 97
2020-01-07 04:00:00 -1.6 5 Sudoeste 13 Sudoeste 0 975.9 0 99
2020-01-07 03:00:00 -2.4 5 Sudoeste 9 Sur 0 976.3 0.8 99
2020-01-07 02:00:00 -2.1 0 Calma 4 Sudeste 0 975.9 0.3 99
2020-01-07 01:00:00 -1.2 2 Norte 10 Sudoeste 0 975.9 -0.2 99
2020-01-07 00:00:00 -0.3 4 Sur 9 Sudoeste 0 975.5 -0.1 99
2020-01-06 23:00:00 -0.1 6 Sudoeste 10 Sudoeste 0 975.6 1.1 99
2020-01-06 22:00:00 0.7 2 Oeste 5 Nordeste 0 976.1 2.1 98
2020-01-06 21:00:00 0.7 4 Noroeste 8 Noroeste 0 975.6 1.7 98
2020-01-06 20:00:00 1.5 2 Sur 6 Sudeste 0 974.5 1.2 98
2020-01-06 19:00:00 1.7 2 Oeste 6 Sudoeste 0 974 0.5 97
2020-01-06 18:00:00 2 4 Norte 6 Norte 0 973.9 0.7 96
2020-01-06 17:00:00 2.4 3 Noroeste 8 Noroeste 0 973.3 -0.2 95
2020-01-06 16:00:00 2.6 3 Nordeste 13 Noroeste 0 973.5 -1 95
2020-01-06 15:00:00 2.5 5 Norte 12 Norte 0 973.2 -1.7 96
2020-01-06 14:00:00 2.3 4 Norte 10 Norte 0 973.5 -1.3 98
2020-01-06 13:00:00 1.1 5 Noroeste 10 Noroeste 0 974.5 -0.5 98
2020-01-06 12:00:00 0.3 4 Norte 9 Norte 0 974.9 0.7 99
2020-01-06 11:00:00 -1 0 Calma 6 Noroeste 0 974.8 0.7 99
2020-01-06 10:00:00 -1.8 5 Norte 7 Norte 0 975 1.1 99